Sicklerville, NJ (08081)

12:38 AM EST on December 03, 2016 (GMT -0500)
Edgewood Acres | | Change Station

Elev 135 ft 39.72 °N, 74.97 °W | Updated 29 seconds ago

Overcast
Overcast
41.1 °F
Feels Like 41 °F
N
1.0
Wind Variable Wind from WSW

Today
High -- | Low -- °F
--% Chance of Precip.
Yesterday
High -- | Low -- °F
Precip. -- in
Pressure 30.00 in
Visibility 10.0 miles
Clouds Overcast 5000 ft
Windchill 41 °F
Dew Point 29 °F
Humidity 63%
Rainfall 0.00 in
Snow Depth Not available.
7:04 AM 4:35 PM
Waxing Crescent, 12% visible
METAR KVAY 030454Z AUTO 25011G17KT 10SM OVC050 06/M02 A3000 RMK AO2 SLP158 T00611022 401000022 TSNO
Pressure 30.00 in
Visibility 10.0 miles
Clouds Overcast 5000 ft
Windchill 41 °F
Dew Point 29 °F
Humidity 63%
Rainfall 0.00 in
Snow Depth Not available.
7:04 AM 4:35 PM
Waxing Crescent, 12% visible
METAR KVAY 030454Z AUTO 25011G17KT 10SM OVC050 06/M02 A3000 RMK AO2 SLP158 T00611022 401000022 TSNO

10-Day Weather Forecast

Almanac

Astronomy

Dec. 03, 2016 Rise Set
Actual Time
Civil Twilight
Nautical Twilight
Astronomical Twilight
Moon
Length of Visible Light
Length of Day
Tomorrow will be .
, % of the Moon is Illuminated

Today's Extremes

State Highs State Lows

Community

WunderPhotos

Upload Photos

1,955,413 photos uploaded!

WunderBlog® & News

Nearby

Air Quality

  Air Quality AQ Index Pollutant
Not available.

Snow Depth

Station Depth Elevation

Earthquake Activity

City Distance Mag. Time & Date
Minimum magnitude displayed is 2.5.

Coastal Water Temperatures

Place Temperature

Stations

Nearby Weather Stations

Station Location Temp. Windchill Dew Point Humidity Wind Precip. Elev Updated Type
                   

Watches & Warnings

There are currently no watches in effect.